首页
METAR-TAF:

METAR-TAF

机场 :

迈克蒂亚西蒙·玻利瓦尔国际机场

卡拉卡斯, 委内瑞拉

纬度: 10-36N, 经度: 066-59W, 海拔: 43米

当前天气观测

该预报发布于40分钟前的10:00 UTC
风速5节,风向
温度 24°C
湿度 94%
气压 1010 hPa
能见度10公里或以上
散云层高于1600英尺
多云层高于7000英尺

METAR: SVMI 191000Z 09005KT 9999 SCT016 BKN070 24/23 Q1010

时间: 06:40 (10:40 UTC)

预报

预报有效从19日的 04点(UTC)到 20日的 00点(UTC)
风速2节,风向东北
能见度10公里或以上
散云层高于1600英尺
多云层高于7000英尺
短暂存在
从 19日的 06点(UTC)到 19日的 10点(UTC)
风速6节,风向
能見度: 9000
多云层高于1300英尺
小毛毛雨,

TAF: SVMI 190400 1906/2006 05002KT 9999 SCT016 BKN070 TX33/1918Z TN23/1907Z TEMPO 1906/1910 09006KT 9000 -DZ BKN013

超过4000个机场的气象观测和天气预报(METAR&TAF报告)。

可查询的气象台以黄色和红色小点在地图上表示。

将鼠标移到小点上方,可查看气象台名称。

然后点击查看天气观测和预报。

如需切换地图:点击带黑十字的绿色按钮放大地图;点击带横线的绿色按钮缩小地图;或者点击绿色箭头查看邻近地区的地图。


METAR-TAF: